createdAt,value
2019-03-31T00:00:36.883Z,98504.70
2019-03-31T00:03:09.274Z,98505.88
2019-03-31T00:05:41.696Z,98504.45
2019-03-31T00:08:14.107Z,98507.17
2019-03-31T00:10:46.498Z,98509.73
2019-03-31T00:13:18.904Z,98510.81
2019-03-31T00:15:51.342Z,98510.55
2019-03-31T00:18:23.772Z,98506.81
2019-03-31T00:20:56.151Z,98509.12
2019-03-31T00:23:28.596Z,98508.46
2019-03-31T00:26:01.024Z,98509.84
2019-03-31T00:28:33.451Z,98501.91
2019-03-31T00:31:06.456Z,98513.70
2019-03-31T00:33:38.866Z,98507.92
2019-03-31T00:36:11.280Z,98507.06
2019-03-31T00:38:43.692Z,98507.05
2019-03-31T00:41:16.070Z,98507.13
2019-03-31T00:43:48.527Z,98506.16
2019-03-31T00:46:20.921Z,98502.98
2019-03-31T00:48:53.338Z,98508.71
2019-03-31T00:51:25.778Z,98504.15
2019-03-31T00:53:58.195Z,98512.09
2019-03-31T00:56:30.573Z,98509.05
2019-03-31T00:59:02.976Z,98506.33
2019-03-31T01:01:38.865Z,98514.48
2019-03-31T01:04:13.425Z,98511.45
2019-03-31T01:06:47.082Z,98505.61
2019-03-31T01:09:34.449Z,98505.63
2019-03-31T01:12:08.886Z,98513.34
2019-03-31T01:14:41.267Z,98507.40
2019-03-31T01:17:14.823Z,98508.78
2019-03-31T01:19:47.210Z,98507.80
2019-03-31T01:22:19.587Z,98514.55
2019-03-31T01:24:52.135Z,98509.34
2019-03-31T01:27:25.501Z,98506.98
2019-03-31T01:29:57.921Z,98508.37
2019-03-31T01:32:30.592Z,98506.41
2019-03-31T01:35:02.986Z,98506.72
2019-03-31T01:37:35.664Z,98504.05
2019-03-31T01:40:08.143Z,98500.52
2019-03-31T01:42:40.636Z,98504.49
2019-03-31T01:45:13.244Z,98498.86
2019-03-31T01:47:45.637Z,98499.77
2019-03-31T01:50:18.316Z,98501.70
2019-03-31T01:52:50.717Z,98502.92
2019-03-31T01:55:23.109Z,98499.09
2019-03-31T01:57:55.504Z,98498.86
2019-03-31T02:00:47.594Z,98505.85
2019-03-31T02:03:19.994Z,98501.20
2019-03-31T02:05:52.366Z,98504.93
2019-03-31T02:08:24.860Z,98499.89
2019-03-31T02:10:57.249Z,98500.20
2019-03-31T02:13:29.686Z,98500.74
2019-03-31T02:16:02.101Z,98494.41
2019-03-31T02:18:34.470Z,98496.22
2019-03-31T02:21:06.873Z,98494.94
2019-03-31T02:23:39.269Z,98493.92
2019-03-31T02:26:11.642Z,98491.13
2019-03-31T02:28:44.103Z,98494.62
2019-03-31T02:31:16.430Z,98497.75
2019-03-31T02:33:48.845Z,98491.34
2019-03-31T02:36:21.229Z,98489.52
2019-03-31T02:38:53.638Z,98496.59
2019-03-31T02:41:26.093Z,98497.59
2019-03-31T02:43:59.690Z,98501.09
2019-03-31T02:46:32.135Z,98496.05
2019-03-31T02:49:04.828Z,98491.55
2019-03-31T02:51:37.254Z,98496.81
2019-03-31T02:54:09.966Z,98496.96
2019-03-31T02:56:43.222Z,98491.13
2019-03-31T02:59:17.216Z,98493.83
2019-03-31T03:01:52.457Z,98492.83
2019-03-31T03:04:25.941Z,98492.43
2019-03-31T03:06:59.692Z,98492.50
2019-03-31T03:09:33.789Z,98490.13
2019-03-31T03:12:09.427Z,98495.39
2019-03-31T03:14:41.806Z,98494.16
2019-03-31T03:17:14.160Z,98501.47
2019-03-31T03:19:46.564Z,98496.00
2019-03-31T03:22:18.945Z,98499.49
2019-03-31T03:24:52.710Z,98499.23
2019-03-31T03:27:25.126Z,98499.56
2019-03-31T03:29:57.551Z,98494.59
2019-03-31T03:32:29.981Z,98496.93
2019-03-31T03:35:02.413Z,98494.20
2019-03-31T03:37:34.794Z,98497.40
2019-03-31T03:40:07.696Z,98495.78
2019-03-31T03:42:40.164Z,98494.33
2019-03-31T03:45:12.547Z,98496.85
2019-03-31T03:47:44.946Z,98494.77
2019-03-31T03:50:17.305Z,98496.39
2019-03-31T03:52:49.721Z,98494.19
2019-03-31T03:55:22.096Z,98493.57
2019-03-31T03:57:54.476Z,98494.47
2019-03-31T04:00:26.850Z,98485.55
2019-03-31T04:03:00.310Z,98491.41
2019-03-31T04:05:32.704Z,98489.72
2019-03-31T04:08:05.092Z,98483.70
2019-03-31T04:11:20.819Z,98484.74
2019-03-31T04:13:50.592Z,98479.03
2019-03-31T04:16:22.956Z,98483.19
2019-03-31T04:18:55.481Z,98484.13
2019-03-31T04:21:28.490Z,98489.30
2019-03-31T04:24:00.892Z,98489.44
2019-03-31T04:26:34.822Z,98491.56
2019-03-31T04:29:07.267Z,98489.80
2019-03-31T04:31:39.646Z,98490.08
2019-03-31T04:34:12.045Z,98487.13
2019-03-31T04:36:44.443Z,98481.48
2019-03-31T04:39:16.838Z,98481.16
2019-03-31T04:41:49.232Z,98492.12
2019-03-31T04:44:21.666Z,98478.61
2019-03-31T04:46:54.033Z,98486.45
2019-03-31T04:49:26.431Z,98479.28
2019-03-31T04:51:58.829Z,98486.52
2019-03-31T04:54:31.194Z,98487.88
2019-03-31T04:57:04.588Z,98483.10
2019-03-31T04:59:37.166Z,98483.60
2019-03-31T05:02:10.647Z,98484.06
2019-03-31T05:04:43.029Z,98479.48
2019-03-31T05:07:16.499Z,98481.15
2019-03-31T05:09:48.887Z,98481.22
2019-03-31T05:12:21.313Z,98489.12
2019-03-31T05:14:53.682Z,98485.56
2019-03-31T05:17:26.046Z,98490.28
2019-03-31T05:19:58.454Z,98489.91
2019-03-31T05:22:30.847Z,98484.94
2019-03-31T05:25:03.306Z,98493.33
2019-03-31T05:27:35.689Z,98489.71
2019-03-31T05:30:08.490Z,98494.38
2019-03-31T05:32:40.892Z,98503.96
2019-03-31T05:35:13.475Z,98500.35
2019-03-31T05:37:51.113Z,98499.33
2019-03-31T05:40:20.047Z,98499.45
2019-03-31T05:42:52.435Z,98499.13
2019-03-31T05:45:25.903Z,98500.14
2019-03-31T05:47:58.330Z,98500.70
2019-03-31T05:50:30.720Z,98500.34
2019-03-31T05:53:03.105Z,98501.33
2019-03-31T05:55:35.466Z,98503.56
2019-03-31T05:58:07.853Z,98514.08
2019-03-31T06:00:44.599Z,98512.39
2019-03-31T06:03:17.032Z,98512.83
2019-03-31T06:05:49.424Z,98517.38
2019-03-31T06:08:22.812Z,98517.72
2019-03-31T06:10:55.200Z,98511.97
2019-03-31T06:13:27.589Z,98514.52
2019-03-31T06:15:59.967Z,98511.17
2019-03-31T06:18:33.450Z,98514.87
2019-03-31T06:21:05.827Z,98515.85
2019-03-31T06:23:38.300Z,98514.33
2019-03-31T06:26:10.759Z,98518.31
2019-03-31T06:28:43.207Z,98521.61
2019-03-31T06:31:15.622Z,98520.38
2019-03-31T06:33:48.105Z,98524.39
2019-03-31T06:36:20.480Z,98529.70
2019-03-31T06:38:53.095Z,98531.41
2019-03-31T06:41:25.510Z,98532.70
2019-03-31T06:43:57.913Z,98537.45
2019-03-31T06:46:30.485Z,98535.36
2019-03-31T06:49:02.939Z,98534.21
2019-03-31T06:51:35.323Z,98533.05
2019-03-31T06:54:07.746Z,98539.53
2019-03-31T06:56:40.179Z,98534.55
2019-03-31T06:59:13.840Z,98539.02
2019-03-31T07:01:46.247Z,98541.83
2019-03-31T07:04:18.665Z,98538.95
2019-03-31T07:06:51.064Z,98536.83
2019-03-31T07:09:23.525Z,98545.89
2019-03-31T07:11:55.950Z,98536.73
2019-03-31T07:14:28.397Z,98545.95
2019-03-31T07:17:00.817Z,98540.19
2019-03-31T07:19:33.225Z,98544.78
2019-03-31T07:22:05.682Z,98542.97
2019-03-31T07:24:38.157Z,98542.63
2019-03-31T07:27:10.571Z,98542.14
2019-03-31T07:29:43.005Z,98538.53
2019-03-31T07:32:15.441Z,98543.05
2019-03-31T07:34:48.927Z,98547.02
2019-03-31T07:37:21.333Z,98553.23
2019-03-31T07:39:53.737Z,98552.05
2019-03-31T07:42:26.496Z,98550.00
2019-03-31T07:44:59.196Z,98553.22
2019-03-31T07:47:31.670Z,98556.80
2019-03-31T07:50:04.417Z,98547.44
2019-03-31T07:52:37.080Z,98542.21
2019-03-31T07:55:10.204Z,98550.28
2019-03-31T07:57:42.714Z,98546.31
2019-03-31T08:00:20.434Z,98554.08
2019-03-31T08:02:53.926Z,98547.91
2019-03-31T08:05:33.012Z,98549.84
2019-03-31T08:08:00.434Z,98552.03
2019-03-31T08:10:32.859Z,98555.94
2019-03-31T08:13:05.438Z,98553.45
2019-03-31T08:15:37.847Z,98545.54
2019-03-31T08:18:10.286Z,98546.53
2019-03-31T08:20:42.757Z,98550.98
2019-03-31T08:23:15.206Z,98547.73
2019-03-31T08:25:47.607Z,98557.03
2019-03-31T08:28:20.240Z,98550.19
2019-03-31T08:30:52.709Z,98551.97
2019-03-31T08:33:25.150Z,98548.86
2019-03-31T08:35:57.527Z,98553.22
2019-03-31T08:38:29.964Z,98551.61
2019-03-31T08:41:02.547Z,98551.77
2019-03-31T08:43:34.967Z,98549.64
2019-03-31T08:46:07.453Z,98546.39
2019-03-31T08:48:41.463Z,98553.30
2019-03-31T08:51:15.479Z,98540.53
2019-03-31T08:53:49.801Z,98541.03
2019-03-31T08:56:23.335Z,98531.58
2019-03-31T08:58:55.762Z,98534.70
2019-03-31T09:01:28.207Z,98532.97
2019-03-31T09:04:00.906Z,98531.50
2019-03-31T09:06:33.372Z,98535.52
2019-03-31T09:09:08.338Z,98537.06
2019-03-31T09:11:40.804Z,98530.73
2019-03-31T09:14:13.355Z,98531.91
2019-03-31T09:16:45.805Z,98528.23
2019-03-31T09:19:18.261Z,98528.69
2019-03-31T09:21:51.907Z,98528.18
2019-03-31T09:24:24.361Z,98528.73
2019-03-31T09:26:56.784Z,98523.02
2019-03-31T09:29:29.193Z,98522.14
2019-03-31T09:32:01.628Z,98524.05
2019-03-31T09:34:34.051Z,98520.92
2019-03-31T09:37:06.520Z,98521.80
2019-03-31T09:39:38.963Z,98522.30
2019-03-31T09:42:11.412Z,98521.35
2019-03-31T09:44:43.854Z,98517.58
2019-03-31T09:47:16.298Z,98519.46
2019-03-31T09:49:48.719Z,98515.63
2019-03-31T09:52:21.145Z,98516.18
2019-03-31T09:54:53.532Z,98512.88
2019-03-31T09:57:25.956Z,98512.59
2019-03-31T09:59:58.420Z,98503.64
2019-03-31T10:02:30.889Z,98500.16
2019-03-31T10:05:03.360Z,98501.66
2019-03-31T10:07:36.778Z,98501.00
2019-03-31T10:10:13.940Z,98500.03
2019-03-31T10:12:46.458Z,98493.55
2019-03-31T10:15:19.181Z,98492.19
2019-03-31T10:17:51.603Z,98486.34
2019-03-31T10:20:24.093Z,98483.03
2019-03-31T10:22:56.509Z,98482.63
2019-03-31T10:25:28.928Z,98482.28
2019-03-31T10:28:01.368Z,98474.98
2019-03-31T10:30:36.744Z,98463.44
2019-03-31T10:33:09.701Z,98463.91
2019-03-31T10:35:42.140Z,98460.47
2019-03-31T10:38:15.832Z,98459.96
2019-03-31T10:40:48.277Z,98462.28
2019-03-31T10:43:20.642Z,98456.27
2019-03-31T10:45:53.382Z,98451.22
2019-03-31T10:48:25.767Z,98454.93
2019-03-31T10:50:58.449Z,98451.64
2019-03-31T10:53:30.952Z,98454.15
2019-03-31T10:56:03.436Z,98452.95
2019-03-31T10:58:35.826Z,98458.23
2019-03-31T11:01:08.377Z,98456.16
2019-03-31T11:03:40.793Z,98448.60
2019-03-31T11:06:13.258Z,98454.75
2019-03-31T11:08:45.778Z,98448.80
2019-03-31T11:11:28.831Z,98458.30
2019-03-31T11:14:01.240Z,98453.31
2019-03-31T11:16:33.780Z,98455.09
2019-03-31T11:19:06.455Z,98450.02
2019-03-31T11:22:14.187Z,98451.29
2019-03-31T11:24:46.626Z,98450.02
2019-03-31T11:27:19.291Z,98450.80
2019-03-31T11:29:51.802Z,98452.33
2019-03-31T11:32:24.241Z,98445.52
2019-03-31T11:34:56.640Z,98443.53
2019-03-31T11:37:29.059Z,98439.87
2019-03-31T11:40:01.459Z,98440.55
2019-03-31T11:42:33.948Z,98440.80
2019-03-31T11:45:06.958Z,98437.44
2019-03-31T11:47:39.370Z,98433.12
2019-03-31T11:50:12.117Z,98431.95
2019-03-31T11:52:44.550Z,98426.11
2019-03-31T11:55:16.965Z,98429.08
2019-03-31T11:57:49.387Z,98430.30
2019-03-31T12:00:22.610Z,98428.73
2019-03-31T12:02:55.235Z,98424.41
2019-03-31T12:05:27.850Z,98421.09
2019-03-31T12:08:00.231Z,98420.27
2019-03-31T12:10:32.983Z,98413.44
2019-03-31T12:13:05.497Z,98416.43
2019-03-31T12:15:38.418Z,98417.98
2019-03-31T12:18:10.908Z,98405.00
2019-03-31T12:20:43.345Z,98399.33
2019-03-31T12:23:15.757Z,98397.17
2019-03-31T12:25:48.178Z,98394.75
2019-03-31T12:28:20.596Z,98392.95
2019-03-31T12:30:53.047Z,98384.52
2019-03-31T12:33:25.504Z,98388.66
2019-03-31T12:35:58.065Z,98386.29
2019-03-31T12:38:30.569Z,98387.80
2019-03-31T12:41:02.982Z,98384.80
2019-03-31T12:43:35.403Z,98386.77
2019-03-31T12:46:07.888Z,98381.60
2019-03-31T12:48:40.310Z,98371.52
2019-03-31T12:51:12.747Z,98367.91
2019-03-31T12:53:45.177Z,98370.41
2019-03-31T12:56:17.699Z,98366.59
2019-03-31T12:58:50.144Z,98378.86
2019-03-31T13:01:22.524Z,98364.77
2019-03-31T13:03:54.961Z,98360.80
2019-03-31T13:06:27.376Z,98367.12
2019-03-31T13:08:59.815Z,98361.16
2019-03-31T13:11:32.259Z,98362.13
2019-03-31T13:14:04.708Z,98364.95
2019-03-31T13:16:37.180Z,98358.16
2019-03-31T13:19:09.596Z,98358.86
2019-03-31T13:21:41.996Z,98355.20
2019-03-31T13:24:14.462Z,98342.24
2019-03-31T13:26:46.859Z,98344.90
2019-03-31T13:29:20.396Z,98339.63
2019-03-31T13:31:52.783Z,98342.42
2019-03-31T13:34:25.248Z,98338.95
2019-03-31T13:36:57.695Z,98338.73
2019-03-31T13:39:30.167Z,98335.62
2019-03-31T13:42:02.776Z,98334.30
2019-03-31T13:44:35.281Z,98338.94
2019-03-31T13:47:07.685Z,98338.63
2019-03-31T13:49:40.070Z,98329.63
2019-03-31T13:52:12.585Z,98322.46
2019-03-31T13:54:45.040Z,98324.30
2019-03-31T13:57:18.198Z,98324.33
2019-03-31T13:59:50.974Z,98312.70
2019-03-31T14:02:23.375Z,98312.86
2019-03-31T14:04:55.839Z,98312.02
2019-03-31T14:07:28.299Z,98306.06
2019-03-31T14:10:00.935Z,98312.40
2019-03-31T14:12:33.472Z,98308.58
2019-03-31T14:15:18.934Z,98306.25
2019-03-31T14:17:43.134Z,98303.10
2019-03-31T14:20:15.904Z,98306.09
2019-03-31T14:22:48.360Z,98304.09
2019-03-31T14:25:20.746Z,98302.09
2019-03-31T14:27:53.460Z,98305.23
2019-03-31T14:30:25.919Z,98298.42
2019-03-31T14:32:58.351Z,98297.03
2019-03-31T14:35:30.782Z,98295.50
2019-03-31T14:38:03.204Z,98297.78
2019-03-31T14:40:35.647Z,98295.39
2019-03-31T14:43:08.031Z,98293.06
2019-03-31T14:45:41.103Z,98288.23
2019-03-31T14:48:13.546Z,98290.20
2019-03-31T14:50:45.996Z,98287.18
2019-03-31T14:53:18.387Z,98283.36
2019-03-31T14:55:50.847Z,98282.52
2019-03-31T14:58:23.254Z,98282.41
2019-03-31T15:00:55.953Z,98276.74
2019-03-31T15:03:28.434Z,98284.56
2019-03-31T15:06:00.873Z,98277.80
2019-03-31T15:08:33.283Z,98272.37
2019-03-31T15:11:05.736Z,98276.34
2019-03-31T15:13:38.152Z,98276.66
2019-03-31T15:16:10.912Z,98273.03
2019-03-31T15:18:43.367Z,98272.84
2019-03-31T15:21:17.240Z,98279.31
2019-03-31T15:23:49.703Z,98270.05
2019-03-31T15:26:22.189Z,98269.22
2019-03-31T15:28:54.632Z,98268.88
2019-03-31T15:31:27.064Z,98271.50
2019-03-31T15:33:59.480Z,98261.70
2019-03-31T15:36:32.217Z,98262.20
2019-03-31T15:39:09.151Z,98266.67
2019-03-31T15:41:40.756Z,98262.99
2019-03-31T15:44:13.191Z,98263.97
2019-03-31T15:46:45.594Z,98263.47
2019-03-31T15:49:18.053Z,98269.88
2019-03-31T15:51:50.500Z,98265.61
2019-03-31T15:54:24.076Z,98264.82
2019-03-31T15:56:56.536Z,98264.58
2019-03-31T15:59:28.925Z,98260.92
2019-03-31T16:02:01.534Z,98255.62
2019-03-31T16:04:34.083Z,98259.28
2019-03-31T16:07:06.460Z,98260.09
2019-03-31T16:09:38.065Z,98260.60
2019-03-31T16:12:09.889Z,98257.29
2019-03-31T16:14:41.510Z,98264.23
2019-03-31T16:17:13.400Z,98263.56
2019-03-31T16:19:45.077Z,98269.45
2019-03-31T16:22:16.744Z,98261.16
2019-03-31T16:24:50.456Z,98261.16
2019-03-31T16:27:22.161Z,98262.45
2019-03-31T16:29:53.802Z,98262.53
2019-03-31T16:32:25.434Z,98266.30
2019-03-31T16:34:57.301Z,98272.30
2019-03-31T16:37:28.963Z,98268.56
2019-03-31T16:40:00.570Z,98267.38
2019-03-31T16:42:33.351Z,98264.73
2019-03-31T16:45:16.362Z,98266.34
2019-03-31T16:47:48.036Z,98269.59
2019-03-31T16:50:19.933Z,98262.02
2019-03-31T16:52:52.848Z,98263.03
2019-03-31T16:55:24.684Z,98263.84
2019-03-31T16:57:56.338Z,98262.82
2019-03-31T17:00:28.538Z,98269.23
2019-03-31T17:03:00.157Z,98264.87
2019-03-31T17:05:31.769Z,98265.88
2019-03-31T17:08:03.381Z,98277.05
2019-03-31T17:10:34.998Z,98267.44
2019-03-31T17:13:07.708Z,98273.30
2019-03-31T17:15:39.380Z,98267.22
2019-03-31T17:18:11.069Z,98267.47
2019-03-31T17:20:42.703Z,98270.85
2019-03-31T17:23:14.302Z,98269.51
2019-03-31T17:25:45.990Z,98267.34
2019-03-31T17:28:17.648Z,98266.16
2019-03-31T17:30:49.322Z,98263.59
2019-03-31T17:33:20.978Z,98269.97
2019-03-31T17:35:52.608Z,98253.97
2019-03-31T17:38:24.479Z,98269.52
2019-03-31T17:40:56.091Z,98260.34
2019-03-31T17:43:27.810Z,98265.48
2019-03-31T17:45:59.429Z,98267.00
2019-03-31T17:48:31.046Z,98262.45
2019-03-31T17:51:02.741Z,98265.67
2019-03-31T17:53:34.372Z,98267.86
2019-03-31T17:56:05.987Z,98267.33
2019-03-31T17:58:37.607Z,98266.83
2019-03-31T18:01:09.524Z,98276.19
2019-03-31T18:03:41.126Z,98277.40
2019-03-31T18:06:12.760Z,98278.61
2019-03-31T18:08:44.467Z,98284.05
2019-03-31T18:11:16.159Z,98276.99
2019-03-31T18:13:47.841Z,98279.62
2019-03-31T18:16:19.459Z,98287.38
2019-03-31T18:18:51.106Z,98290.71
2019-03-31T18:21:22.719Z,98292.86
2019-03-31T18:23:54.504Z,98300.36
2019-03-31T18:26:26.120Z,98305.49
2019-03-31T18:28:57.741Z,98303.55
2019-03-31T18:31:30.404Z,98304.78
2019-03-31T18:34:04.557Z,98309.50
2019-03-31T18:36:37.237Z,98315.27
2019-03-31T18:39:09.036Z,98313.05
2019-03-31T18:41:40.962Z,98321.36
2019-03-31T18:44:12.569Z,98324.03
2019-03-31T18:46:44.200Z,98328.12
2019-03-31T18:49:15.806Z,98329.34
2019-03-31T18:51:47.456Z,98327.25
2019-03-31T18:54:31.452Z,98334.23
2019-03-31T18:57:32.436Z,98332.17
2019-03-31T19:00:33.062Z,98341.14
2019-03-31T19:03:26.345Z,98337.06
2019-03-31T19:06:37.051Z,98339.13
2019-03-31T19:09:43.899Z,98341.38
2019-03-31T19:12:45.132Z,98345.22
2019-03-31T19:15:34.295Z,98343.74
2019-03-31T19:18:33.724Z,98343.21
2019-03-31T19:21:17.311Z,98348.60
2019-03-31T19:24:19.998Z,98359.38
2019-03-31T19:27:12.114Z,98353.95
2019-03-31T19:29:55.952Z,98356.97
2019-03-31T19:32:39.452Z,98360.91
2019-03-31T19:35:36.398Z,98361.17
2019-03-31T19:38:19.923Z,98345.91
2019-03-31T19:41:09.164Z,98358.14
2019-03-31T19:44:02.714Z,98362.01
2019-03-31T19:46:56.503Z,98362.72
2019-03-31T19:49:56.135Z,98372.05
2019-03-31T19:52:44.153Z,98364.78
2019-03-31T19:55:27.578Z,98368.97
2019-03-31T19:58:07.896Z,98370.12
2019-03-31T20:00:45.414Z,98371.48
2019-03-31T20:03:36.023Z,98371.55
2019-03-31T20:06:31.707Z,98373.85
2019-03-31T20:09:22.196Z,98368.70
2019-03-31T20:12:01.649Z,98370.75
2019-03-31T20:14:51.136Z,98369.33
2019-03-31T20:17:37.089Z,98380.66
2019-03-31T20:20:18.772Z,98389.52
2019-03-31T20:22:59.023Z,98390.27
2019-03-31T20:25:52.275Z,98391.59
2019-03-31T20:28:48.992Z,98394.82
2019-03-31T20:31:34.891Z,98399.38
2019-03-31T20:34:19.604Z,98397.60
2019-03-31T20:37:03.275Z,98400.59
2019-03-31T20:39:56.157Z,98412.31
2019-03-31T20:42:36.436Z,98396.53
2019-03-31T20:45:08.532Z,98434.26
2019-03-31T20:47:40.191Z,98403.24
2019-03-31T20:50:11.762Z,98400.88
2019-03-31T20:52:43.422Z,98397.64
2019-03-31T20:55:16.465Z,98406.11
2019-03-31T20:57:48.591Z,98412.08
2019-03-31T21:00:21.300Z,98403.50
2019-03-31T21:02:53.054Z,98401.84
2019-03-31T21:05:24.675Z,98414.23
2019-03-31T21:07:56.343Z,98412.66
2019-03-31T21:10:28.390Z,98409.10
2019-03-31T21:12:59.979Z,98414.18
2019-03-31T21:15:31.596Z,98409.67
2019-03-31T21:18:03.261Z,98411.19
2019-03-31T21:20:35.934Z,98430.39
2019-03-31T21:23:07.586Z,98419.05
2019-03-31T21:25:39.183Z,98421.08
2019-03-31T21:28:10.832Z,98414.86
2019-03-31T21:30:42.410Z,98428.08
2019-03-31T21:33:14.045Z,98428.65
2019-03-31T21:35:48.480Z,98428.67
2019-03-31T21:38:18.954Z,98424.95
2019-03-31T21:40:51.642Z,98430.28
2019-03-31T21:43:23.288Z,98415.13
2019-03-31T21:45:54.891Z,98424.67
2019-03-31T21:48:26.521Z,98426.28
2019-03-31T21:50:58.225Z,98429.31
2019-03-31T21:53:29.878Z,98420.41
2019-03-31T21:56:01.473Z,98428.08
2019-03-31T21:58:33.199Z,98423.13
2019-03-31T22:01:04.979Z,98432.13
2019-03-31T22:03:36.842Z,98426.17
2019-03-31T22:06:08.452Z,98426.08
2019-03-31T22:08:40.067Z,98424.73
2019-03-31T22:11:11.663Z,98428.16
2019-03-31T22:13:43.445Z,98429.73
2019-03-31T22:16:15.023Z,98432.20
2019-03-31T22:18:46.627Z,98433.14
2019-03-31T22:21:18.293Z,98421.88
2019-03-31T22:23:57.955Z,98424.87
2019-03-31T22:26:23.302Z,98431.56
2019-03-31T22:28:55.039Z,98433.56
2019-03-31T22:31:26.661Z,98417.58
2019-03-31T22:33:58.264Z,98419.98
2019-03-31T22:36:29.927Z,98419.41
2019-03-31T22:39:01.489Z,98413.11
2019-03-31T22:41:34.359Z,98410.31
2019-03-31T22:44:05.991Z,98418.13
2019-03-31T22:46:37.588Z,98425.89
2019-03-31T22:49:09.164Z,98405.05
2019-03-31T22:51:40.783Z,98407.56
2019-03-31T22:54:12.356Z,98413.87
2019-03-31T22:56:43.967Z,98405.68
2019-03-31T22:59:15.552Z,98399.93
2019-03-31T23:01:47.144Z,98413.97
2019-03-31T23:04:19.941Z,98397.98
2019-03-31T23:06:51.584Z,98402.83
2019-03-31T23:09:23.173Z,98413.28
2019-03-31T23:11:54.766Z,98418.58
2019-03-31T23:14:26.364Z,98423.60
2019-03-31T23:16:57.986Z,98435.05
2019-03-31T23:19:29.585Z,98429.38
2019-03-31T23:22:01.152Z,98433.36
2019-03-31T23:24:32.757Z,98435.30
2019-03-31T23:27:04.351Z,98441.83
2019-03-31T23:29:35.945Z,98431.65
2019-03-31T23:32:07.633Z,98431.23
2019-03-31T23:34:39.248Z,98433.30
2019-03-31T23:37:10.849Z,98431.75
2019-03-31T23:39:42.411Z,98427.34
2019-03-31T23:42:14.097Z,98434.81
2019-03-31T23:44:45.686Z,98445.53
2019-03-31T23:47:18.378Z,98437.80
2019-03-31T23:49:50.014Z,98436.59
2019-03-31T23:52:21.595Z,98436.12
2019-03-31T23:54:53.211Z,98437.19
2019-03-31T23:57:40.211Z,98433.95
